Time;durP1;ratioP1;P1;durP2;ratioP2;P2;SDS_P1;SDS_P2;PMS_P1;PMS_P2;Temp;Humidity;BMP_temperature;BMP_pressure;BME280_temperature;BME280_humidity;BME280_pressure;Samples;Min_cycle;Max_cycle;Signal;HPM_P1;HPM_P2
2021/09/07 00:00:40;;;;;;;1.55;1.45;;;19.90;74.40;;;;;;4951652;28;20035;-81
2021/09/07 00:03:05;;;;;;;1.38;1.27;;;19.80;74.10;;;;;;4951940;28;20503;-79
2021/09/07 00:05:31;;;;;;;1.35;1.25;;;19.80;74.90;;;;;;4951624;28;20079;-82
2021/09/07 00:11:19;;;;;;;1.30;1.20;;;19.50;75.60;;;;;;4951959;29;20038;-80
2021/09/07 00:13:45;;;;;;;1.98;1.85;;;19.40;76.60;;;;;;4951520;28;20032;-84
2021/09/07 00:16:11;;;;;;;1.25;1.15;;;19.50;76.30;;;;;;4954192;28;20060;-79
2021/09/07 00:18:37;;;;;;;1.30;1.20;;;19.20;77.10;;;;;;4955215;28;20111;-81
2021/09/07 00:21:03;;;;;;;1.40;1.30;;;19.40;76.90;;;;;;4953184;29;20122;-79
2021/09/07 00:23:28;;;;;;;1.50;1.40;;;19.30;77.20;;;;;;4955215;29;20098;-79
2021/09/07 00:25:54;;;;;;;1.33;1.23;;;19.20;77.90;;;;;;4954002;28;20484;-77
2021/09/07 00:31:42;;;;;;;1.70;1.60;;;19.20;78.40;;;;;;4955211;29;20054;-78
2021/09/07 00:34:07;;;;;;;1.35;1.25;;;19.30;78.20;;;;;;4954896;28;20416;-79
2021/09/07 00:36:33;;;;;;;1.30;1.20;;;19.20;78.10;;;;;;4954726;29;20031;-79
2021/09/07 00:38:59;;;;;;;1.75;1.65;;;19.00;78.40;;;;;;4953405;29;20027;-78
2021/09/07 00:44:46;;;;;;;1.35;1.25;;;18.90;79.50;;;;;;4954753;29;20041;-77
2021/09/07 00:47:12;;;;;;;1.40;1.30;;;19.10;79.20;;;;;;4954333;28;20043;-78
2021/09/07 00:49:38;;;;;;;1.92;1.83;;;18.80;79.60;;;;;;4954371;29;20090;-78
2021/09/07 00:52:05;;;;;;;2.50;2.30;;;18.80;80.00;;;;;;4954544;28;20118;-78
2021/09/07 00:54:36;;;;;;;2.20;2.05;;;18.70;80.10;;;;;;4954567;29;20027;-77
2021/09/07 00:57:04;;;;;;;1.83;1.73;;;18.60;80.70;;;;;;4954116;29;20060;-78
2021/09/07 00:59:32;;;;;;;1.40;1.30;;;18.70;80.50;;;;;;4954577;28;20035;-77
2021/09/07 01:01:58;;;;;;;1.33;1.23;;;18.70;80.10;;;;;;4954194;29;20166;-77
2021/09/07 01:04:24;;;;;;;1.40;1.30;;;18.70;80.00;;;;;;4952871;29;20130;-78
2021/09/07 01:06:50;;;;;;;1.92;1.80;;;18.50;80.40;;;;;;4954085;29;20035;-77
2021/09/07 01:09:16;;;;;;;1.40;1.30;;;18.70;80.40;;;;;;4952957;29;20081;-78
2021/09/07 01:11:42;;;;;;;1.50;1.40;;;18.80;80.60;;;;;;4954010;29;20031;-79
2021/09/07 01:14:08;;;;;;;4.28;1.95;;;18.70;80.20;;;;;;4954238;29;20038;-77
2021/09/07 01:16:34;;;;;;;1.50;1.40;;;18.50;80.80;;;;;;4954249;29;20031;-78
2021/09/07 01:19:00;;;;;;;1.40;1.30;;;18.50;81.30;;;;;;4954032;29;20122;-81
2021/09/07 01:21:26;;;;;;;1.50;1.40;;;18.50;81.80;;;;;;4953920;28;20106;-81
2021/09/07 01:23:52;;;;;;;1.40;1.30;;;18.50;81.80;;;;;;4953245;28;20086;-79
2021/09/07 01:26:20;;;;;;;1.50;1.40;;;18.60;82.40;;;;;;4953869;28;20019;-81
2021/09/07 01:28:47;;;;;;;1.50;1.40;;;18.50;82.50;;;;;;4953603;28;20112;-83
2021/09/07 01:31:13;;;;;;;1.42;1.33;;;18.50;83.80;;;;;;4954091;28;20033;-79
2021/09/07 01:33:39;;;;;;;3.28;2.75;;;18.60;83.40;;;;;;4953800;28;20039;-81
2021/09/07 01:36:05;;;;;;;1.92;1.83;;;18.50;83.70;;;;;;4953492;28;20028;-81
2021/09/07 01:38:32;;;;;;;1.60;1.50;;;18.50;83.90;;;;;;4952593;29;20381;-81
2021/09/07 01:41:00;;;;;;;1.40;1.30;;;18.40;84.20;;;;;;4953363;28;20110;-79
2021/09/07 01:43:26;;;;;;;1.60;1.50;;;18.30;84.50;;;;;;4953640;28;20033;-82
2021/09/07 01:45:54;;;;;;;1.75;1.65;;;18.20;84.50;;;;;;4953601;28;20696;-85
2021/09/07 01:48:21;;;;;;;2.08;1.98;;;18.20;85.00;;;;;;4952395;29;20039;-82
2021/09/07 01:50:48;;;;;;;1.70;1.60;;;18.30;85.10;;;;;;4953144;28;20035;-81
2021/09/07 01:53:15;;;;;;;1.50;1.40;;;18.30;85.30;;;;;;4953423;28;20399;-79
2021/09/07 01:55:41;;;;;;;1.60;1.50;;;18.20;85.40;;;;;;4953358;28;20059;-79
2021/09/07 01:58:07;;;;;;;3.97;2.38;;;18.20;85.50;;;;;;4953423;28;20035;-80
2021/09/07 02:00:33;;;;;;;1.50;1.40;;;18.10;86.30;;;;;;4951705;29;20031;-81
2021/09/07 02:02:59;;;;;;;1.60;1.50;;;18.20;86.90;;;;;;4953416;28;20151;-79
2021/09/07 02:05:25;;;;;;;1.80;1.70;;;18.10;86.20;;;;;;4952995;28;20044;-79
2021/09/07 02:07:51;;;;;;;1.58;1.48;;;18.10;86.80;;;;;;4953169;28;20023;-80
2021/09/07 02:10:17;;;;;;;1.98;1.88;;;18.00;86.70;;;;;;4951734;29;20042;-82
2021/09/07 02:12:43;;;;;;;1.80;1.70;;;18.10;87.00;;;;;;4951668;29;20039;-84
2021/09/07 02:15:09;;;;;;;2.50;2.30;;;18.00;87.60;;;;;;4951472;28;20089;-81
2021/09/07 02:17:37;;;;;;;1.52;1.42;;;17.90;87.50;;;;;;4952865;28;20038;-80
2021/09/07 02:20:03;;;;;;;2.05;1.85;;;17.90;88.00;;;;;;4952410;29;20027;-83
2021/09/07 02:22:29;;;;;;;1.50;1.40;;;17.90;88.30;;;;;;4952912;29;20061;-81
2021/09/07 02:24:55;;;;;;;1.95;1.85;;;17.80;88.80;;;;;;4952728;29;20047;-80
2021/09/07 02:27:21;;;;;;;1.60;1.50;;;17.90;88.70;;;;;;4951564;29;20062;-80
2021/09/07 02:29:47;;;;;;;2.05;1.95;;;17.90;88.50;;;;;;4951142;29;20052;-83
2021/09/07 02:32:13;;;;;;;1.67;1.58;;;17.90;88.80;;;;;;4951436;29;20483;-81
2021/09/07 02:34:39;;;;;;;1.70;1.60;;;17.90;88.70;;;;;;4951228;29;20435;-84
2021/09/07 02:37:05;;;;;;;1.90;1.80;;;17.90;88.50;;;;;;4951127;29;20463;-80
2021/09/07 02:39:31;;;;;;;2.35;2.25;;;17.70;88.80;;;;;;4951824;28;20480;-81
2021/09/07 02:41:57;;;;;;;1.60;1.50;;;17.80;89.40;;;;;;4952408;28;20026;-82
2021/09/07 02:44:23;;;;;;;1.50;1.40;;;17.70;89.80;;;;;;4951617;29;20027;-80
2021/09/07 02:46:49;;;;;;;2.33;2.15;;;17.70;90.00;;;;;;4935415;29;20483;-80
2021/09/07 02:49:15;;;;;;;1.95;1.85;;;17.60;89.90;;;;;;4952879;28;20073;-81
2021/09/07 02:51:43;;;;;;;1.70;1.60;;;17.70;89.70;;;;;;4951794;28;20027;-79
2021/09/07 02:54:09;;;;;;;1.50;1.40;;;17.70;89.70;;;;;;4951546;29;20031;-79
2021/09/07 02:56:35;;;;;;;1.50;1.40;;;17.60;89.90;;;;;;4934876;29;20515;-79
2021/09/07 02:59:01;;;;;;;1.60;1.50;;;17.50;89.90;;;;;;4952247;28;20039;-80
2021/09/07 03:01:27;;;;;;;1.50;1.40;;;17.40;90.30;;;;;;4952358;28;20039;-80
2021/09/07 03:03:54;;;;;;;1.77;1.67;;;17.40;90.00;;;;;;4952617;29;20028;-80
2021/09/07 03:06:20;;;;;;;1.60;1.50;;;17.70;88.30;;;;;;4952185;28;20023;-79
2021/09/07 03:08:45;;;;;;;2.25;2.13;;;17.70;87.80;;;;;;4952107;28;20078;-81
2021/09/07 03:11:12;;;;;;;9.98;2.22;;;17.30;88.50;;;;;;4952008;28;20034;-79
2021/09/07 03:13:38;;;;;;;1.80;1.70;;;17.20;90.20;;;;;;4951846;29;20042;-79
2021/09/07 03:16:04;;;;;;;1.77;1.67;;;17.30;90.30;;;;;;4950266;29;20373;-81
2021/09/07 03:18:30;;;;;;;1.70;1.60;;;17.30;90.20;;;;;;4951988;29;20253;-81
2021/09/07 03:20:56;;;;;;;1.65;1.55;;;17.30;90.70;;;;;;4950433;29;20089;-81
2021/09/07 03:23:22;;;;;;;1.80;1.70;;;17.30;90.90;;;;;;4951629;28;20538;-80
2021/09/07 03:25:47;;;;;;;5.88;2.88;;;17.30;90.80;;;;;;4951775;28;20031;-78
2021/09/07 03:28:13;;;;;;;1.50;1.40;;;17.40;90.70;;;;;;4952460;28;20027;-79
2021/09/07 03:30:39;;;;;;;1.65;1.55;;;17.50;90.20;;;;;;4951506;28;20040;-80
2021/09/07 03:33:05;;;;;;;2.15;2.00;;;17.50;90.10;;;;;;4952050;28;20054;-79
2021/09/07 03:35:31;;;;;;;2.15;2.05;;;17.20;90.30;;;;;;4952081;28;20151;-79
2021/09/07 03:37:57;;;;;;;1.60;1.50;;;17.10;90.70;;;;;;4951932;28;20030;-79
2021/09/07 03:40:23;;;;;;;1.75;1.65;;;17.20;90.50;;;;;;4951837;28;20027;-82
2021/09/07 03:42:49;;;;;;;2.22;1.90;;;17.20;90.50;;;;;;4951742;28;20031;-82
2021/09/07 03:45:18;;;;;;;2.00;1.80;;;17.20;90.70;;;;;;4951595;28;20038;-81
2021/09/07 03:47:45;;;;;;;1.70;1.60;;;17.20;90.90;;;;;;4951899;28;20673;-81
2021/09/07 03:50:13;;;;;;;1.80;1.70;;;17.10;90.40;;;;;;4951535;28;20027;-79
2021/09/07 03:52:39;;;;;;;1.52;1.42;;;17.10;90.50;;;;;;4955518;28;20042;-79
2021/09/07 03:55:05;;;;;;;2.65;2.45;;;17.10;90.30;;;;;;4955657;28;20026;-80
2021/09/07 03:57:31;;;;;;;4.00;3.70;;;17.00;90.50;;;;;;4955236;28;20047;-81
2021/09/07 03:59:57;;;;;;;1.77;1.67;;;16.80;91.00;;;;;;4955757;28;20027;-78
2021/09/07 04:02:24;;;;;;;1.95;1.85;;;16.70;91.10;;;;;;4954102;29;20042;-82
2021/09/07 04:04:51;;;;;;;1.60;1.50;;;16.80;91.30;;;;;;4955653;28;20403;-79
2021/09/07 04:07:17;;;;;;;1.60;1.50;;;16.60;91.40;;;;;;4955325;28;20024;-81
2021/09/07 04:09:43;;;;;;;4.93;2.95;;;16.60;91.70;;;;;;4955176;28;20047;-79
2021/09/07 04:12:08;;;;;;;2.22;2.03;;;16.70;91.60;;;;;;4955119;28;20159;-79
2021/09/07 04:14:34;;;;;;;1.60;1.50;;;16.70;91.70;;;;;;4955229;28;20023;-78
2021/09/07 04:17:02;;;;;;;1.80;1.70;;;16.70;91.80;;;;;;4955180;28;20531;-79
2021/09/07 04:19:28;;;;;;;2.00;1.90;;;16.60;92.00;;;;;;4953881;29;20031;-79
2021/09/07 04:21:53;;;;;;;3.03;2.83;;;16.50;91.90;;;;;;4954615;29;20046;-80
2021/09/07 04:24:19;;;;;;;2.38;2.17;;;16.60;92.10;;;;;;4953446;29;20509;-79
2021/09/07 04:26:45;;;;;;;1.70;1.60;;;16.60;92.30;;;;;;4953414;29;20396;-80
2021/09/07 04:29:11;;;;;;;1.85;1.75;;;16.60;92.60;;;;;;4955081;28;20067;-80
2021/09/07 04:31:37;;;;;;;2.08;1.95;;;16.60;93.00;;;;;;4952556;29;20384;-81
2021/09/07 04:34:03;;;;;;;1.85;1.75;;;16.50;93.00;;;;;;4954756;28;20114;-80
2021/09/07 04:36:29;;;;;;;2.10;2.00;;;16.50;93.10;;;;;;4950453;28;20480;-78
2021/09/07 04:38:55;;;;;;;1.70;1.60;;;16.50;92.90;;;;;;4954868;28;20081;-79
2021/09/07 04:41:21;;;;;;;1.95;1.85;;;16.60;93.10;;;;;;4954214;29;20539;-78
2021/09/07 04:43:47;;;;;;;2.75;2.38;;;16.70;92.90;;;;;;4955048;28;20023;-75
2021/09/07 04:46:13;;;;;;;2.15;1.98;;;16.70;92.90;;;;;;4954069;28;20421;-79
2021/09/07 04:48:39;;;;;;;2.35;2.17;;;16.50;93.00;;;;;;4954721;28;20037;-79
2021/09/07 04:51:04;;;;;;;2.75;2.58;;;16.40;92.90;;;;;;4954718;28;20032;-80
2021/09/07 04:53:30;;;;;;;2.25;2.05;;;16.50;93.10;;;;;;4954379;29;20576;-78
2021/09/07 04:55:56;;;;;;;2.22;2.08;;;16.60;93.30;;;;;;4952897;29;20040;-77
2021/09/07 04:58:22;;;;;;;1.60;1.50;;;16.70;93.20;;;;;;4954811;29;20031;-76
2021/09/07 05:00:48;;;;;;;1.95;1.85;;;16.80;92.90;;;;;;4952817;29;20073;-80
2021/09/07 05:03:14;;;;;;;1.92;1.83;;;16.90;93.10;;;;;;4953009;28;20479;-78
2021/09/07 05:05:39;;;;;;;5.45;2.55;;;16.90;92.80;;;;;;4952787;29;20031;-75
2021/09/07 05:08:06;;;;;;;1.73;1.63;;;17.00;92.50;;;;;;4954369;29;20023;-76
2021/09/07 05:10:31;;;;;;;1.85;1.75;;;16.70;92.30;;;;;;4954017;28;20035;-77
2021/09/07 05:12:57;;;;;;;1.88;1.77;;;17.00;92.90;;;;;;4952774;29;20682;-79
2021/09/07 05:15:23;;;;;;;2.28;2.08;;;17.00;92.50;;;;;;4953628;28;20050;-78
2021/09/07 05:17:49;;;;;;;2.00;1.90;;;17.00;92.60;;;;;;4953971;29;20031;-76
2021/09/07 05:20:15;;;;;;;2.45;2.25;;;17.00;92.50;;;;;;4953902;28;20131;-77
2021/09/07 05:22:41;;;;;;;1.80;1.70;;;17.10;92.90;;;;;;4953555;28;20028;-78
2021/09/07 05:25:07;;;;;;;1.60;1.50;;;17.20;93.00;;;;;;4953603;28;20083;-77
2021/09/07 05:27:35;;;;;;;1.70;1.60;;;17.30;93.00;;;;;;4953616;28;20032;-78
2021/09/07 05:30:03;;;;;;;6.90;3.13;;;17.40;93.20;;;;;;4953895;28;20020;-77
2021/09/07 05:32:28;;;;;;;1.70;1.60;;;17.30;92.80;;;;;;4953593;28;20039;-77
2021/09/07 05:34:54;;;;;;;1.85;1.75;;;17.40;92.50;;;;;;4953644;28;20091;-77
2021/09/07 05:37:20;;;;;;;1.50;1.40;;;17.50;92.40;;;;;;4952460;29;20376;-78
2021/09/07 05:39:46;;;;;;;1.40;1.30;;;17.60;92.30;;;;;;4953814;28;20035;-79
2021/09/07 05:42:11;;;;;;;1.92;1.83;;;17.30;91.80;;;;;;4953286;28;20027;-78
2021/09/07 05:44:37;;;;;;;3.38;2.20;;;17.30;92.40;;;;;;4953763;28;20086;-78
2021/09/07 05:47:03;;;;;;;1.83;1.73;;;16.50;93.40;;;;;;4953265;28;20031;-79
2021/09/07 05:49:31;;;;;;;2.75;2.45;;;16.60;94.20;;;;;;4950422;29;20019;-76
2021/09/07 05:51:57;;;;;;;2.58;2.38;;;17.10;93.60;;;;;;4952962;29;20031;-79
2021/09/07 05:54:23;;;;;;;2.72;2.53;;;17.60;92.90;;;;;;4952711;29;20036;-78
2021/09/07 05:56:48;;;;;;;3.33;3.03;;;17.70;92.80;;;;;;4950715;28;20047;-76
2021/09/07 05:59:16;;;;;;;1.65;1.55;;;17.90;92.20;;;;;;4952552;29;20038;-77
2021/09/07 06:01:42;;;;;;;1.50;1.40;;;18.00;92.30;;;;;;4952693;28;20023;-77
2021/09/07 06:04:08;;;;;;;2.78;2.45;;;18.10;91.70;;;;;;4953309;28;20023;-77
2021/09/07 06:06:33;;;;;;;11.35;2.47;;;18.20;91.80;;;;;;4952322;29;20396;-80
2021/09/07 06:08:59;;;;;;;2.78;2.58;;;18.30;91.80;;;;;;4952832;28;20028;-78
2021/09/07 06:11:25;;;;;;;1.48;1.38;;;18.40;91.50;;;;;;4952728;29;20029;-77
2021/09/07 06:13:51;;;;;;;1.52;1.42;;;18.30;91.20;;;;;;4952480;28;20082;-77
2021/09/07 06:16:17;;;;;;;1.65;1.55;;;18.40;91.10;;;;;;4952648;28;20474;-77
2021/09/07 06:18:43;;;;;;;2.30;2.15;;;18.50;91.20;;;;;;4946983;28;20032;-77
2021/09/07 06:21:08;;;;;;;1.77;1.67;;;18.50;91.30;;;;;;4942648;29;20479;-78
2021/09/07 06:23:34;;;;;;;1.58;1.48;;;18.60;90.90;;;;;;4951570;29;20035;-78
2021/09/07 06:26:00;;;;;;;2.05;1.95;;;18.80;89.20;;;;;;4952944;29;20167;-76
2021/09/07 06:28:26;;;;;;;1.67;1.58;;;18.80;89.10;;;;;;4951763;29;20019;-78
2021/09/07 06:30:53;;;;;;;1.63;1.52;;;18.20;89.60;;;;;;4952930;28;20134;-78
2021/09/07 06:33:19;;;;;;;1.45;1.35;;;18.30;89.10;;;;;;4952862;29;20043;-78
2021/09/07 06:35:45;;;;;;;1.67;1.58;;;18.20;90.00;;;;;;4952686;29;20382;-78
2021/09/07 06:38:11;;;;;;;3.00;2.65;;;18.50;89.10;;;;;;4952688;28;20484;-78
2021/09/07 06:40:37;;;;;;;2.38;2.17;;;18.50;88.00;;;;;;4952627;29;20035;-78
2021/09/07 06:43:03;;;;;;;1.58;1.48;;;18.20;88.70;;;;;;4952562;28;20050;-79
2021/09/07 06:45:29;;;;;;;2.63;1.92;;;18.40;88.90;;;;;;4952422;29;20049;-79
2021/09/07 06:47:55;;;;;;;2.08;1.95;;;18.40;87.60;;;;;;4952542;29;20031;-79
2021/09/07 06:50:21;;;;;;;1.70;1.60;;;17.90;89.30;;;;;;4952281;29;20044;-80
2021/09/07 06:52:47;;;;;;;1.70;1.60;;;18.40;89.00;;;;;;4951162;29;20484;-80
2021/09/07 06:55:12;;;;;;;2.05;1.92;;;18.70;87.50;;;;;;4952247;28;20070;-80
2021/09/07 06:57:38;;;;;;;1.40;1.30;;;19.00;87.20;;;;;;4952727;29;20055;-80
2021/09/07 07:00:05;;;;;;;2.95;1.90;;;19.20;86.40;;;;;;4952271;29;20039;-78
2021/09/07 07:02:31;;;;;;;1.80;1.70;;;19.30;85.90;;;;;;4952687;28;20094;-79
2021/09/07 07:04:59;;;;;;;3.90;2.38;;;19.00;84.50;;;;;;4952046;29;20381;-79
2021/09/07 07:07:25;;;;;;;1.23;1.13;;;18.80;84.80;;;;;;4950759;29;20031;-80
2021/09/07 07:09:51;;;;;;;1.65;1.55;;;18.90;85.70;;;;;;4952175;29;20034;-79
2021/09/07 07:12:17;;;;;;;1.33;1.23;;;19.20;84.80;;;;;;4952051;29;20035;-79
2021/09/07 07:14:44;;;;;;;1.95;1.85;;;19.30;83.80;;;;;;4950783;29;20038;-79
2021/09/07 07:17:10;;;;;;;1.92;1.80;;;19.30;83.50;;;;;;4952033;29;20264;-79
2021/09/07 07:19:36;;;;;;;1.40;1.30;;;19.30;84.20;;;;;;4951836;29;20027;-79
2021/09/07 07:22:02;;;;;;;3.78;1.88;;;19.20;83.90;;;;;;4951560;28;20476;-79
2021/09/07 07:24:28;;;;;;;1.45;1.35;;;19.30;84.40;;;;;;4951665;28;20019;-79
2021/09/07 07:26:54;;;;;;;1.38;1.27;;;19.50;83.40;;;;;;4951730;28;20376;-78
2021/09/07 07:29:19;;;;;;;2.72;1.83;;;19.70;82.30;;;;;;4952258;28;20538;-79
2021/09/07 07:31:45;;;;;;;1.10;1.10;;;19.80;82.30;;;;;;4951899;28;20374;-78
2021/09/07 07:34:11;;;;;;;3.75;1.52;;;20.00;82.10;;;;;;4950767;29;20082;-78
2021/09/07 07:36:36;;;;;;;1.30;1.20;;;20.00;81.60;;;;;;4951849;28;20115;-79
2021/09/07 07:39:04;;;;;;;1.00;1.00;;;20.00;82.70;;;;;;4951789;28;20114;-78
2021/09/07 07:41:30;;;;;;;1.00;1.00;;;20.10;82.00;;;;;;4951968;28;20078;-79
2021/09/07 07:43:55;;;;;;;1.10;1.10;;;20.10;81.90;;;;;;4951962;28;20110;-79
2021/09/07 07:46:22;;;;;;;1.10;1.10;;;20.30;81.10;;;;;;4951577;28;20031;-79
2021/09/07 07:48:48;;;;;;;1.00;1.00;;;20.30;80.90;;;;;;4951615;28;20432;-79
2021/09/07 07:51:14;;;;;;;1.92;1.75;;;20.50;80.70;;;;;;4951253;28;20031;-78
2021/09/07 07:53:40;;;;;;;1.10;1.08;;;20.50;78.80;;;;;;4951631;28;20031;-80
2021/09/07 07:56:07;;;;;;;1.10;1.10;;;20.60;79.20;;;;;;4949641;29;20051;-79
2021/09/07 07:58:33;;;;;;;1.77;1.60;;;20.50;79.60;;;;;;4951597;28;20031;-79
2021/09/07 08:00:58;;;;;;;0.95;0.95;;;20.50;79.80;;;;;;4951266;28;20042;-78
2021/09/07 08:03:25;;;;;;;1.02;1.00;;;20.70;79.70;;;;;;4951433;28;20031;-78
2021/09/07 08:05:51;;;;;;;30.73;2.97;;;20.80;78.90;;;;;;4951412;28;20043;-79
2021/09/07 08:08:17;;;;;;;1.48;1.40;;;21.00;77.80;;;;;;4950607;29;20032;-79
2021/09/07 08:10:43;;;;;;;1.15;1.10;;;20.90;76.30;;;;;;4950948;28;20086;-79
2021/09/07 08:13:09;;;;;;;1.52;1.42;;;20.80;75.30;;;;;;4951837;28;20039;-79
2021/09/07 08:15:35;;;;;;;1.35;1.25;;;20.90;75.70;;;;;;4951549;28;20028;-81
2021/09/07 08:18:01;;;;;;;1.20;1.10;;;20.80;75.90;;;;;;4951384;28;20027;-79
2021/09/07 08:20:31;;;;;;;0.90;0.90;;;21.00;76.90;;;;;;4950953;28;20439;-78
2021/09/07 08:22:57;;;;;;;2.45;1.75;;;21.10;78.00;;;;;;4951579;28;20427;-79
2021/09/07 08:25:23;;;;;;;1.23;1.13;;;21.40;75.00;;;;;;4951359;29;20041;-79
2021/09/07 08:27:49;;;;;;;1.13;1.13;;;21.70;74.90;;;;;;4951793;28;20155;-78
2021/09/07 08:30:15;;;;;;;1.25;1.15;;;22.00;73.50;;;;;;4951308;29;20086;-79
2021/09/07 08:32:42;;;;;;;1.30;1.20;;;22.20;72.90;;;;;;4950086;29;20047;-80
2021/09/07 08:35:12;;;;;;;0.80;0.80;;;22.10;71.10;;;;;;4951283;28;20103;-78
2021/09/07 08:37:40;;;;;;;0.80;0.80;;;22.10;71.30;;;;;;4952771;28;20023;-78
2021/09/07 08:40:07;;;;;;;0.80;0.80;;;22.30;70.20;;;;;;4954364;29;20032;-79
2021/09/07 08:42:34;;;;;;;1.02;1.02;;;22.30;68.50;;;;;;4955218;29;20094;-79
2021/09/07 08:45:01;;;;;;;1.45;1.35;;;22.60;68.80;;;;;;4954350;29;20074;-79
2021/09/07 08:47:27;;;;;;;2.42;1.15;;;22.80;68.00;;;;;;4954614;28;20029;-80
2021/09/07 08:49:53;;;;;;;0.90;0.90;;;23.10;66.20;;;;;;4954449;29;20027;-79
2021/09/07 08:52:19;;;;;;;13.65;2.28;;;23.10;65.20;;;;;;4954870;29;20102;-79
2021/09/07 08:54:46;;;;;;;0.80;0.80;;;23.20;65.10;;;;;;4954437;29;20028;-79
2021/09/07 08:57:12;;;;;;;0.93;0.93;;;23.30;65.20;;;;;;4954266;29;20055;-80
2021/09/07 08:59:38;;;;;;;1.23;1.15;;;23.70;66.30;;;;;;4954566;29;20483;-79
2021/09/07 09:02:16;;;;;;;0.70;0.70;;;23.70;64.60;;;;;;4953843;29;20050;-79
2021/09/07 09:04:47;;;;;;;0.65;0.65;;;23.50;64.40;;;;;;4954523;29;20283;-80
2021/09/07 09:07:28;;;;;;;0.70;0.70;;;23.70;64.40;;;;;;4954305;28;20111;-80
2021/09/07 09:09:56;;;;;;;0.90;0.88;;;23.60;63.80;;;;;;4954151;28;20039;-80
2021/09/07 09:12:32;;;;;;;0.80;0.80;;;23.70;64.10;;;;;;4954319;29;20070;-79
2021/09/07 09:14:58;;;;;;;1.40;1.13;;;24.10;64.80;;;;;;4953899;29;20034;-80
2021/09/07 09:17:30;;;;;;;0.80;0.80;;;23.80;62.80;;;;;;4954623;29;20140;-78
2021/09/07 09:20:16;;;;;;;0.75;0.75;;;23.80;63.30;;;;;;4954152;28;20093;-79
2021/09/07 09:22:56;;;;;;;1.45;1.25;;;23.80;62.40;;;;;;4953831;28;20079;-79
2021/09/07 09:25:22;;;;;;;;;;;24.00;62.70;;;;;;4954043;28;20086;-79
2021/09/07 09:28:13;;;;;;;0.60;0.60;;;24.60;62.50;;;;;;4954223;28;19939;-78
2021/09/07 09:30:54;;;;;;;0.60;0.60;;;24.50;60.90;;;;;;4953637;28;20163;-79
2021/09/07 09:33:21;;;;;;;;;;;24.80;61.50;;;;;;4954056;28;20067;-80
2021/09/07 09:35:55;;;;;;;0.60;0.60;;;24.80;60.20;;;;;;4953663;28;20347;-79
2021/09/07 09:38:24;;;;;;;0.73;0.73;;;24.20;60.90;;;;;;4954040;28;20023;-78
2021/09/07 09:40:59;;;;;;;0.60;0.60;;;24.40;62.20;;;;;;4953190;28;20030;-80
2021/09/07 09:43:37;;;;;;;1.27;0.80;;;24.20;60.80;;;;;;4953609;28;20035;-79
2021/09/07 09:46:27;;;;;;;1.08;1.02;;;24.60;61.20;;;;;;4953561;28;20051;-79
2021/09/07 09:49:11;;;;;;;0.50;0.50;;;24.60;59.80;;;;;;4953307;28;20491;-79
2021/09/07 09:51:39;;;;;;;0.47;0.47;;;24.60;60.10;;;;;;4953078;28;20031;-80
2021/09/07 09:54:05;;;;;;;0.68;0.68;;;24.50;60.20;;;;;;4953680;28;20535;-79
2021/09/07 09:56:31;;;;;;;0.47;0.47;;;24.80;60.60;;;;;;4952934;28;20146;-79
2021/09/07 09:58:59;;;;;;;0.90;0.85;;;25.00;60.00;;;;;;4953665;28;20027;-79
2021/09/07 10:01:26;;;;;;;0.90;0.85;;;25.30;60.00;;;;;;4953135;28;20035;-79
2021/09/07 10:03:54;;;;;;;1.23;0.77;;;25.20;57.90;;;;;;4953375;28;20031;-79
2021/09/07 10:06:20;;;;;;;0.63;0.63;;;25.30;58.10;;;;;;4952998;28;20042;-79
2021/09/07 10:08:47;;;;;;;0.60;0.60;;;25.20;57.90;;;;;;4952973;28;20933;-79
2021/09/07 10:11:17;;;;;;;0.75;0.75;;;25.20;58.70;;;;;;4953477;28;20047;-80
2021/09/07 10:13:46;;;;;;;0.55;0.55;;;25.30;57.90;;;;;;4952993;28;20118;-79
2021/09/07 10:16:34;;;;;;;0.93;0.85;;;25.20;58.10;;;;;;4946601;28;20043;-78
2021/09/07 10:19:36;;;;;;;0.88;0.88;;;25.40;57.20;;;;;;4947480;28;20023;-79
2021/09/07 10:24:51;;;;;;;0.55;0.55;;;25.40;57.50;;;;;;4952465;29;20550;-76
2021/09/07 10:27:17;;;;;;;0.40;0.40;;;25.70;57.40;;;;;;4951809;29;20057;-78
2021/09/07 10:29:44;;;;;;;0.50;0.50;;;26.00;56.90;;;;;;4950781;28;20107;-75
2021/09/07 10:32:24;;;;;;;0.35;0.35;;;26.20;56.70;;;;;;4949494;29;20554;-77
2021/09/07 10:35:04;;;;;;;0.50;0.50;;;26.00;56.90;;;;;;4949715;29;20027;-77
2021/09/07 10:38:09;;;;;;;0.40;0.40;;;26.10;56.30;;;;;;4948506;29;20047;-77
2021/09/07 10:40:40;;;;;;;0.40;0.40;;;26.20;56.30;;;;;;4948537;29;20098;-77
2021/09/07 10:43:06;;;;;;;0.50;0.50;;;26.60;55.10;;;;;;4946189;29;20058;-77
2021/09/07 10:45:32;;;;;;;0.57;0.57;;;26.50;55.60;;;;;;4949285;29;20031;-77
2021/09/07 10:47:58;;;;;;;0.47;0.47;;;26.60;54.50;;;;;;4950394;29;20102;-76
2021/09/07 10:50:56;;;;;;;0.82;0.82;;;25.90;53.50;;;;;;4949891;28;20090;-77
2021/09/07 10:53:23;;;;;;;0.40;0.40;;;25.90;54.70;;;;;;4948900;29;20086;-77
2021/09/07 10:55:49;;;;;;;0.43;0.43;;;25.90;54.50;;;;;;4948421;28;20436;-77
2021/09/07 10:58:32;;;;;;;6.90;0.82;;;26.10;54.10;;;;;;4949899;28;20480;-77
2021/09/07 11:01:26;;;;;;;1.30;0.90;;;26.40;54.10;;;;;;4950254;28;20079;-78
2021/09/07 11:04:31;;;;;;;1.30;1.17;;;26.60;54.00;;;;;;4946645;29;20114;-76
2021/09/07 11:06:57;;;;;;;0.38;0.38;;;27.00;53.90;;;;;;4949230;29;20038;-77
2021/09/07 11:09:52;;;;;;;3.47;1.20;;;26.80;52.40;;;;;;4948007;29;20379;-77
2021/09/07 11:12:29;;;;;;;0.75;0.65;;;26.70;52.10;;;;;;4949881;28;20449;-77
2021/09/07 11:15:10;;;;;;;0.35;0.35;;;26.40;52.50;;;;;;4951345;28;20031;-77
2021/09/07 11:17:47;;;;;;;0.40;0.40;;;26.30;50.80;;;;;;4949501;29;20023;-78
2021/09/07 11:20:12;;;;;;;0.55;0.55;;;26.00;52.30;;;;;;4951409;29;20489;-79
2021/09/07 11:22:38;;;;;;;0.60;0.60;;;26.60;52.30;;;;;;4952194;28;20027;-77
2021/09/07 11:25:10;;;;;;;0.30;0.30;;;27.10;52.30;;;;;;4951414;29;20480;-76
2021/09/07 11:27:58;;;;;;;1.85;1.25;;;27.10;52.30;;;;;;4949662;29;20027;-77
2021/09/07 11:30:30;;;;;;;0.52;0.52;;;26.90;50.90;;;;;;4932917;29;20407;-79
2021/09/07 11:33:05;;;;;;;0.63;0.63;;;27.20;51.90;;;;;;4932521;29;20051;-78
2021/09/07 11:35:37;;;;;;;0.85;0.85;;;27.30;51.70;;;;;;4932876;29;20031;-78
2021/09/07 11:38:07;;;;;;;1.65;0.77;;;26.60;51.30;;;;;;4932688;29;20028;-79
2021/09/07 11:40:34;;;;;;;0.38;0.38;;;26.30;51.20;;;;;;4948194;29;20019;-78
2021/09/07 11:43:02;;;;;;;0.50;0.50;;;26.70;51.50;;;;;;4951000;29;20035;-78
2021/09/07 11:45:32;;;;;;;0.73;0.73;;;27.50;51.50;;;;;;4950714;28;20027;-79
2021/09/07 11:48:00;;;;;;;0.45;0.45;;;27.80;51.60;;;;;;4950471;28;20066;-80
2021/09/07 11:50:31;;;;;;;0.50;0.50;;;27.80;49.50;;;;;;4950308;28;20015;-76
2021/09/07 11:53:00;;;;;;;0.82;0.70;;;27.80;49.30;;;;;;4950415;28;20087;-79
2021/09/07 11:55:40;;;;;;;1.48;1.38;;;27.80;49.60;;;;;;4948932;29;20023;-79
2021/09/07 11:58:07;;;;;;;0.30;0.30;;;27.90;50.60;;;;;;4950145;28;20393;-78
2021/09/07 12:00:33;;;;;;;0.40;0.40;;;27.80;50.00;;;;;;4949325;29;20035;-76
2021/09/07 12:03:17;;;;;;;0.85;0.65;;;27.60;49.40;;;;;;4949901;28;20133;-77
2021/09/07 12:05:54;;;;;;;0.30;0.30;;;27.40;49.90;;;;;;4949456;28;20106;-77
2021/09/07 12:08:21;;;;;;;5.35;1.42;;;27.70;49.90;;;;;;4950260;28;20027;-78
2021/09/07 12:10:56;;;;;;;0.40;0.38;;;27.60;48.90;;;;;;4950459;28;20078;-77
2021/09/07 12:13:22;;;;;;;0.35;0.35;;;28.00;49.00;;;;;;4953535;28;21017;-78
2021/09/07 12:15:49;;;;;;;0.47;0.47;;;28.30;49.70;;;;;;4953522;28;20404;-78
2021/09/07 12:18:36;;;;;;;0.88;0.88;;;28.60;49.80;;;;;;4953914;29;20053;-79
2021/09/07 12:21:05;;;;;;;0.45;0.45;;;29.20;49.40;;;;;;4953537;28;20737;-76
2021/09/07 12:23:35;;;;;;;0.50;0.40;;;29.60;48.90;;;;;;4953331;29;20059;-79
2021/09/07 12:26:03;;;;;;;0.52;0.52;;;29.20;47.30;;;;;;4953583;28;20027;-79
2021/09/07 12:28:29;;;;;;;0.73;0.65;;;29.40;48.00;;;;;;4954135;28;20046;-78
2021/09/07 12:31:20;;;;;;;0.47;0.47;;;29.70;47.10;;;;;;4954220;28;20419;-77
2021/09/07 12:33:50;;;;;;;0.40;0.40;;;29.30;48.30;;;;;;4953640;29;20035;-78
2021/09/07 12:36:24;;;;;;;0.43;0.38;;;29.00;47.50;;;;;;4953007;28;20038;-78
2021/09/07 12:38:51;;;;;;;0.52;0.52;;;28.80;47.40;;;;;;4953610;29;20031;-79
2021/09/07 12:41:21;;;;;;;0.32;0.32;;;28.60;46.90;;;;;;4953862;28;20428;-79
2021/09/07 12:43:51;;;;;;;1.35;0.55;;;28.40;47.40;;;;;;4954049;28;20019;-80
2021/09/07 12:46:19;;;;;;;0.85;0.77;;;28.40;47.20;;;;;;4954039;29;20362;-80
2021/09/07 12:48:48;;;;;;;1.17;1.08;;;28.50;47.30;;;;;;4953856;28;20380;-79
2021/09/07 12:51:17;;;;;;;0.57;0.57;;;28.40;47.30;;;;;;4952739;28;20387;-79
2021/09/07 12:53:47;;;;;;;0.30;0.30;;;27.90;47.40;;;;;;4951410;29;20546;-81
2021/09/07 12:56:18;;;;;;;1.00;0.70;;;28.60;47.80;;;;;;4953839;28;20340;-79
2021/09/07 12:58:52;;;;;;;0.30;0.30;;;28.80;46.30;;;;;;4951647;29;20038;-78
2021/09/07 13:01:23;;;;;;;0.30;0.30;;;28.80;46.40;;;;;;4953404;28;20027;-80
2021/09/07 13:03:50;;;;;;;0.30;0.30;;;28.60;46.50;;;;;;4953828;28;20037;-79
2021/09/07 13:06:18;;;;;;;0.35;0.35;;;28.70;46.50;;;;;;4953696;28;20089;-79